createdAt,value
2023-01-21T00:01:15.004Z,47.75
2023-01-21T00:03:43.332Z,48.13
2023-01-21T00:06:14.823Z,47.82
2023-01-21T00:08:43.202Z,48.14
2023-01-21T00:11:14.621Z,48.25
2023-01-21T00:13:44.514Z,48.33
2023-01-21T00:16:13.405Z,47.92
2023-01-21T00:18:41.437Z,48.43
2023-01-21T00:21:10.901Z,48.12
2023-01-21T00:23:39.207Z,48.46
2023-01-21T00:26:11.425Z,47.83
2023-01-21T00:28:41.665Z,48.79
2023-01-21T00:31:11.784Z,48.01
2023-01-21T00:33:40.166Z,48.26
2023-01-21T00:36:14.514Z,48.36
2023-01-21T00:38:42.250Z,48.93
2023-01-21T00:41:13.262Z,48.36
2023-01-21T00:43:42.469Z,48.27
2023-01-21T00:46:11.210Z,48.24
2023-01-21T00:48:40.392Z,48.12
2023-01-21T00:51:09.619Z,48.38
2023-01-21T00:53:41.855Z,48.13
2023-01-21T00:56:12.771Z,48.21
2023-01-21T00:58:43.381Z,48.00
2023-01-21T01:01:19.144Z,47.91
2023-01-21T01:03:48.915Z,47.38
2023-01-21T01:06:24.064Z,47.21
2023-01-21T01:08:52.652Z,47.54
2023-01-21T01:11:25.240Z,47.67
2023-01-21T01:13:55.119Z,47.52
2023-01-21T01:16:23.244Z,47.57
2023-01-21T01:18:52.574Z,47.20
2023-01-21T01:21:22.377Z,47.21
2023-01-21T01:23:54.772Z,47.37
2023-01-21T01:26:22.856Z,47.31
2023-01-21T01:28:50.574Z,47.21
2023-01-21T01:31:19.816Z,47.39
2023-01-21T01:33:48.327Z,47.54
2023-01-21T01:36:25.945Z,47.34
2023-01-21T01:38:54.271Z,47.49
2023-01-21T01:41:29.906Z,47.13
2023-01-21T01:43:59.923Z,47.70
2023-01-21T01:46:36.577Z,47.23
2023-01-21T01:49:15.839Z,47.37
2023-01-21T01:51:54.659Z,47.16
2023-01-21T01:54:29.977Z,47.40
2023-01-21T01:57:03.121Z,47.24
2023-01-21T01:59:32.031Z,47.78
2023-01-21T02:02:07.934Z,47.31
2023-01-21T02:04:56.963Z,47.43
2023-01-21T02:07:26.371Z,47.73
2023-01-21T02:09:55.281Z,47.35
2023-01-21T02:12:23.593Z,47.56
2023-01-21T02:14:51.579Z,47.35
2023-01-21T02:17:34.938Z,46.93
2023-01-21T02:20:30.367Z,46.86
2023-01-21T02:23:20.079Z,46.95
2023-01-21T02:26:31.181Z,46.82
2023-01-21T02:29:16.089Z,47.08
2023-01-21T02:32:19.281Z,46.77
2023-01-21T02:35:05.512Z,46.82
2023-01-21T02:38:02.254Z,46.13
2023-01-21T02:40:53.218Z,46.58
2023-01-21T02:43:40.402Z,46.61
2023-01-21T02:46:49.840Z,46.36
2023-01-21T02:49:42.266Z,45.99
2023-01-21T02:52:22.144Z,46.03
2023-01-21T02:54:57.059Z,46.31
2023-01-21T02:57:51.106Z,46.44
2023-01-21T03:00:29.617Z,46.61
2023-01-21T03:03:24.244Z,46.73
2023-01-21T03:06:30.118Z,46.26
2023-01-21T03:09:03.847Z,46.20
2023-01-21T03:11:32.241Z,46.21
2023-01-21T03:14:59.552Z,46.14
2023-01-21T03:17:44.856Z,45.99
2023-01-21T03:20:39.697Z,46.37
2023-01-21T03:23:17.532Z,46.22
2023-01-21T03:25:47.302Z,46.81
2023-01-21T03:28:30.785Z,46.31
2023-01-21T03:31:09.538Z,46.68
2023-01-21T03:33:45.861Z,46.43
2023-01-21T03:36:34.813Z,46.60
2023-01-21T03:39:13.309Z,46.79
2023-01-21T03:41:41.559Z,46.92
2023-01-21T03:44:09.539Z,47.24
2023-01-21T03:46:39.853Z,47.46
2023-01-21T03:49:33.920Z,46.94
2023-01-21T03:52:04.653Z,47.15
2023-01-21T03:54:32.991Z,47.19
2023-01-21T03:57:00.797Z,47.26
2023-01-21T03:59:28.630Z,47.32
2023-01-21T04:01:56.301Z,47.39
2023-01-21T04:04:24.154Z,47.19
2023-01-21T04:06:51.962Z,47.22
2023-01-21T04:09:19.719Z,47.47
2023-01-21T04:11:47.662Z,47.51
2023-01-21T04:14:15.488Z,47.59
2023-01-21T04:16:43.466Z,47.42
2023-01-21T04:19:11.187Z,47.48
2023-01-21T04:21:38.883Z,47.38
2023-01-21T04:24:07.120Z,47.48
2023-01-21T04:26:35.288Z,47.67
2023-01-21T04:29:03.093Z,47.86
2023-01-21T04:31:30.816Z,47.79
2023-01-21T04:33:59.058Z,47.77
2023-01-21T04:36:26.772Z,47.95
2023-01-21T04:38:54.721Z,47.69
2023-01-21T04:41:25.166Z,48.16
2023-01-21T04:43:53.192Z,48.13
2023-01-21T04:46:20.924Z,47.88
2023-01-21T04:48:51.628Z,48.03
2023-01-21T04:51:19.509Z,47.96
2023-01-21T04:53:47.266Z,47.97
2023-01-21T04:56:15.265Z,48.09
2023-01-21T04:58:43.092Z,47.90
2023-01-21T05:01:11.072Z,47.87
2023-01-21T05:03:39.003Z,47.92
2023-01-21T05:06:07.058Z,48.12
2023-01-21T05:08:34.717Z,47.81
2023-01-21T05:11:02.432Z,48.17
2023-01-21T05:13:30.198Z,47.92
2023-01-21T05:16:08.542Z,47.89
2023-01-21T05:18:37.782Z,48.06
2023-01-21T05:21:06.275Z,48.08
2023-01-21T05:23:34.164Z,48.22
2023-01-21T05:26:01.876Z,48.37
2023-01-21T05:28:29.637Z,48.72
2023-01-21T05:31:04.366Z,48.38
2023-01-21T05:33:34.595Z,48.81
2023-01-21T05:36:04.641Z,48.95
2023-01-21T05:38:32.442Z,48.73
2023-01-21T05:41:05.837Z,49.27
2023-01-21T05:43:33.791Z,49.29
2023-01-21T05:46:01.744Z,49.49
2023-01-21T05:48:29.649Z,48.96
2023-01-21T05:50:58.445Z,48.98
2023-01-21T05:53:26.763Z,49.26
2023-01-21T05:55:56.273Z,49.01
2023-01-21T05:58:25.665Z,49.00
2023-01-21T06:00:54.392Z,49.15
2023-01-21T06:03:22.161Z,48.94
2023-01-21T06:05:53.390Z,48.79
2023-01-21T06:08:21.225Z,48.81
2023-01-21T06:10:49.179Z,48.80
2023-01-21T06:13:16.939Z,49.03
2023-01-21T06:15:44.823Z,49.01
2023-01-21T06:18:12.527Z,49.31
2023-01-21T06:20:41.125Z,48.98
2023-01-21T06:23:08.982Z,48.90
2023-01-21T06:25:36.848Z,49.23
2023-01-21T06:28:04.649Z,49.34
2023-01-21T06:30:32.941Z,49.45
2023-01-21T06:33:00.637Z,49.02
2023-01-21T06:35:28.520Z,49.54
2023-01-21T06:37:56.258Z,49.55
2023-01-21T06:40:24.064Z,49.30
2023-01-21T06:42:51.755Z,49.63
2023-01-21T06:45:19.567Z,49.32
2023-01-21T06:47:47.609Z,49.47
2023-01-21T06:50:17.905Z,49.43
2023-01-21T06:52:48.436Z,49.63
2023-01-21T06:55:17.022Z,49.81
2023-01-21T06:57:45.547Z,49.23
2023-01-21T07:00:14.443Z,49.19
2023-01-21T07:02:42.334Z,49.49
2023-01-21T07:05:10.235Z,48.93
2023-01-21T07:07:37.965Z,48.87
2023-01-21T07:10:06.758Z,49.29
2023-01-21T07:12:34.565Z,49.29
2023-01-21T07:15:02.472Z,49.14
2023-01-21T07:17:30.238Z,49.03
2023-01-21T07:19:58.117Z,48.74
2023-01-21T07:22:26.015Z,48.66
2023-01-21T07:24:53.854Z,49.06
2023-01-21T07:27:24.357Z,48.86
2023-01-21T07:29:52.109Z,48.50
2023-01-21T07:32:20.080Z,48.84
2023-01-21T07:34:47.987Z,48.70
2023-01-21T07:37:15.872Z,48.19
2023-01-21T07:39:43.750Z,48.47
2023-01-21T07:42:11.410Z,48.34
2023-01-21T07:44:39.251Z,48.40
2023-01-21T07:47:07.089Z,48.70
2023-01-21T07:49:35.042Z,48.91
2023-01-21T07:52:02.814Z,48.67
2023-01-21T07:54:30.546Z,48.81
2023-01-21T07:56:58.642Z,48.65
2023-01-21T07:59:26.371Z,48.72
2023-01-21T08:01:54.126Z,48.33
2023-01-21T08:04:22.906Z,48.49
2023-01-21T08:06:52.908Z,48.65
2023-01-21T08:09:21.012Z,48.73
2023-01-21T08:11:48.746Z,48.84
2023-01-21T08:14:16.579Z,48.49
2023-01-21T08:16:44.266Z,48.66
2023-01-21T08:19:13.893Z,48.61
2023-01-21T08:21:41.847Z,48.72
2023-01-21T08:24:10.549Z,48.75
2023-01-21T08:26:38.473Z,48.49
2023-01-21T08:29:06.327Z,48.89
2023-01-21T08:31:34.298Z,48.76
2023-01-21T08:34:02.050Z,49.11
2023-01-21T08:36:29.765Z,49.08
2023-01-21T08:39:06.283Z,49.25
2023-01-21T08:41:34.316Z,49.03
2023-01-21T08:44:21.993Z,49.28
2023-01-21T08:47:09.652Z,49.15
2023-01-21T08:49:37.402Z,49.08
2023-01-21T08:52:05.539Z,49.33
2023-01-21T08:54:33.413Z,49.32
2023-01-21T08:57:01.225Z,49.29
2023-01-21T08:59:30.155Z,49.64
2023-01-21T09:01:58.185Z,49.40
2023-01-21T09:04:27.606Z,49.08
2023-01-21T09:06:55.497Z,48.90
2023-01-21T09:09:23.349Z,48.89
2023-01-21T09:11:52.366Z,48.94
2023-01-21T09:14:21.487Z,49.08
2023-01-21T09:16:49.902Z,48.96
2023-01-21T09:19:18.177Z,49.05
2023-01-21T09:21:45.971Z,49.02
2023-01-21T09:24:13.846Z,48.75
2023-01-21T09:26:44.880Z,49.03
2023-01-21T09:29:12.797Z,49.07
2023-01-21T09:31:40.659Z,49.02
2023-01-21T09:34:10.785Z,48.99
2023-01-21T09:36:39.125Z,49.37
2023-01-21T09:39:07.764Z,49.37
2023-01-21T09:42:03.680Z,49.25
2023-01-21T09:44:43.742Z,49.34
2023-01-21T09:47:37.486Z,48.99
2023-01-21T09:50:22.147Z,49.12
2023-01-21T09:52:59.844Z,49.37
2023-01-21T09:55:47.557Z,49.24
2023-01-21T09:58:44.984Z,49.33
2023-01-21T10:01:24.482Z,49.22
2023-01-21T10:04:34.480Z,49.18
2023-01-21T10:07:22.944Z,49.34
2023-01-21T10:10:39.071Z,49.47
2023-01-21T10:13:48.177Z,49.66
2023-01-21T10:16:30.862Z,49.20
2023-01-21T10:19:02.873Z,49.58
2023-01-21T10:21:38.395Z,49.28
2023-01-21T10:24:20.274Z,49.09
2023-01-21T10:26:51.070Z,48.96
2023-01-21T10:29:23.812Z,49.45
2023-01-21T10:32:02.590Z,49.35
2023-01-21T10:34:33.383Z,48.94
2023-01-21T10:37:30.580Z,48.98
2023-01-21T10:40:48.611Z,49.44
2023-01-21T10:43:49.080Z,49.46
2023-01-21T10:46:22.527Z,49.26
2023-01-21T10:49:31.754Z,48.80
2023-01-21T10:52:13.884Z,48.72
2023-01-21T10:55:24.800Z,48.50
2023-01-21T10:58:21.827Z,48.67
2023-01-21T11:00:52.075Z,48.63
2023-01-21T11:03:47.263Z,48.56
2023-01-21T11:06:18.672Z,48.96
2023-01-21T11:08:49.977Z,49.00
2023-01-21T11:11:30.564Z,48.77
2023-01-21T11:13:58.515Z,49.01
2023-01-21T11:16:46.587Z,49.10
2023-01-21T11:19:21.680Z,49.04
2023-01-21T11:22:17.666Z,48.62
2023-01-21T11:24:51.445Z,48.66
2023-01-21T11:27:34.819Z,48.70
2023-01-21T11:30:15.661Z,49.04
2023-01-21T11:32:52.138Z,48.96
2023-01-21T11:35:24.231Z,48.64
2023-01-21T11:37:52.070Z,48.65
2023-01-21T11:40:25.864Z,48.54
2023-01-21T11:42:57.567Z,48.72
2023-01-21T11:45:38.195Z,48.75
2023-01-21T11:48:36.790Z,48.57
2023-01-21T11:51:07.905Z,49.00
2023-01-21T11:53:35.675Z,48.57
2023-01-21T11:56:07.938Z,48.67
2023-01-21T11:58:42.701Z,48.46
2023-01-21T12:01:21.850Z,48.48
2023-01-21T12:03:56.292Z,48.69
2023-01-21T12:06:30.605Z,48.68
2023-01-21T12:09:04.837Z,48.70
2023-01-21T12:11:32.758Z,48.54
2023-01-21T12:14:29.443Z,48.53
2023-01-21T12:17:30.386Z,48.63
2023-01-21T12:20:26.142Z,48.53
2023-01-21T12:23:28.045Z,48.48
2023-01-21T12:26:20.298Z,48.79
2023-01-21T12:28:59.156Z,48.88
2023-01-21T12:31:37.590Z,48.82
2023-01-21T12:34:34.341Z,48.72
2023-01-21T12:37:10.310Z,48.52
2023-01-21T12:39:40.175Z,48.72
2023-01-21T12:42:38.431Z,48.69
2023-01-21T12:45:27.685Z,48.88
2023-01-21T12:48:07.072Z,48.69
2023-01-21T12:50:41.187Z,48.71
2023-01-21T12:53:33.533Z,48.87
2023-01-21T12:56:39.762Z,48.91
2023-01-21T12:59:33.634Z,49.15
2023-01-21T13:02:34.176Z,49.21
2023-01-21T13:05:52.066Z,49.00
2023-01-21T13:08:41.428Z,49.36
2023-01-21T13:11:15.822Z,49.08
2023-01-21T13:14:08.949Z,49.05
2023-01-21T13:16:43.400Z,49.19
2023-01-21T13:19:14.385Z,49.03
2023-01-21T13:22:10.767Z,49.27
2023-01-21T13:25:04.819Z,49.20
2023-01-21T13:27:50.589Z,49.04
2023-01-21T13:30:44.954Z,49.17
2023-01-21T13:33:39.904Z,49.40
2023-01-21T13:36:21.821Z,49.17
2023-01-21T13:39:05.448Z,49.17
2023-01-21T13:42:10.710Z,49.30
2023-01-21T13:44:57.311Z,49.30
2023-01-21T13:48:02.743Z,49.24
2023-01-21T13:50:40.047Z,49.61
2023-01-21T13:53:58.997Z,49.41
2023-01-21T13:57:02.304Z,49.20
2023-01-21T13:59:40.155Z,49.42
2023-01-21T14:02:37.056Z,49.32
2023-01-21T14:05:46.039Z,49.24
2023-01-21T14:08:24.387Z,48.98
2023-01-21T14:11:04.264Z,49.25
2023-01-21T14:14:02.680Z,49.24
2023-01-21T14:17:16.165Z,49.38
2023-01-21T14:20:18.225Z,49.58
2023-01-21T14:23:08.029Z,49.59
2023-01-21T14:25:54.088Z,49.48
2023-01-21T14:28:53.067Z,49.44
2023-01-21T14:31:26.975Z,49.50
2023-01-21T14:34:12.165Z,49.20
2023-01-21T14:37:31.065Z,49.38
2023-01-21T14:40:13.738Z,49.07
2023-01-21T14:42:49.277Z,48.92
2023-01-21T14:45:25.602Z,49.04
2023-01-21T14:48:41.659Z,48.62
2023-01-21T14:51:31.821Z,49.24
2023-01-21T14:54:26.842Z,49.00
2023-01-21T14:57:36.911Z,48.63
2023-01-21T15:00:34.010Z,49.15
2023-01-21T15:03:27.518Z,48.97
2023-01-21T15:06:22.022Z,48.99
2023-01-21T15:09:28.591Z,49.06
2023-01-21T15:12:34.016Z,48.80
2023-01-21T15:15:31.022Z,49.03
2023-01-21T15:18:10.336Z,48.97
2023-01-21T15:20:57.804Z,49.16
2023-01-21T15:23:30.231Z,49.37
2023-01-21T15:26:12.658Z,49.00
2023-01-21T15:28:57.619Z,49.04
2023-01-21T15:31:26.093Z,49.27
2023-01-21T15:33:58.924Z,49.11
2023-01-21T15:36:34.644Z,49.08
2023-01-21T15:39:16.574Z,49.10
2023-01-21T15:42:10.605Z,48.91
2023-01-21T15:44:59.141Z,48.78
2023-01-21T15:47:48.815Z,48.87
2023-01-21T15:50:30.137Z,49.07
2023-01-21T15:53:16.717Z,49.32
2023-01-21T15:56:11.772Z,49.17
2023-01-21T15:58:49.843Z,49.20
2023-01-21T16:01:34.558Z,49.12
2023-01-21T16:04:27.111Z,49.02
2023-01-21T16:07:09.451Z,48.88
2023-01-21T16:10:04.731Z,48.94
2023-01-21T16:13:36.732Z,49.40
2023-01-21T16:16:47.699Z,49.07
2023-01-21T16:19:21.181Z,49.43
2023-01-21T16:21:57.025Z,49.23
2023-01-21T16:24:29.382Z,49.29
2023-01-21T16:27:24.082Z,49.15
2023-01-21T16:30:04.282Z,49.19
2023-01-21T16:32:32.616Z,49.31
2023-01-21T16:35:00.659Z,49.18
2023-01-21T16:37:30.771Z,49.22
2023-01-21T16:40:29.963Z,48.97
2023-01-21T16:43:12.949Z,48.86
2023-01-21T16:45:47.462Z,49.13
2023-01-21T16:48:29.708Z,49.04
2023-01-21T16:50:58.538Z,48.88
2023-01-21T16:53:26.839Z,49.22
2023-01-21T16:55:58.037Z,48.96
2023-01-21T16:58:34.200Z,49.12
2023-01-21T17:01:18.130Z,48.89
2023-01-21T17:03:49.317Z,49.03
2023-01-21T17:06:29.116Z,48.90
2023-01-21T17:09:18.578Z,49.03
2023-01-21T17:11:47.457Z,49.20
2023-01-21T17:14:30.783Z,48.91
2023-01-21T17:17:02.405Z,48.92
2023-01-21T17:19:42.560Z,48.89
2023-01-21T17:22:25.447Z,48.80
2023-01-21T17:25:07.623Z,49.00
2023-01-21T17:27:38.083Z,49.15
2023-01-21T17:30:32.742Z,48.84
2023-01-21T17:33:02.623Z,49.23
2023-01-21T17:35:33.582Z,49.03
2023-01-21T17:38:04.378Z,48.96
2023-01-21T17:40:42.729Z,48.88
2023-01-21T17:43:25.476Z,48.92
2023-01-21T17:45:56.415Z,48.83
2023-01-21T17:48:35.244Z,48.77
2023-01-21T17:51:23.759Z,49.08
2023-01-21T17:54:05.933Z,48.98
2023-01-21T17:56:38.568Z,48.82
2023-01-21T17:59:28.325Z,49.20
2023-01-21T18:01:56.447Z,49.04
2023-01-21T18:04:24.335Z,49.12
2023-01-21T18:06:54.518Z,49.28
2023-01-21T18:09:25.230Z,48.98
2023-01-21T18:11:57.226Z,49.28
2023-01-21T18:14:26.408Z,49.02
2023-01-21T18:16:54.812Z,49.14
2023-01-21T18:19:37.193Z,48.76
2023-01-21T18:22:06.835Z,49.36
2023-01-21T18:24:35.578Z,49.11
2023-01-21T18:27:03.503Z,49.03
2023-01-21T18:29:31.559Z,49.33
2023-01-21T18:31:59.498Z,49.51
2023-01-21T18:34:29.034Z,49.40
2023-01-21T18:36:57.729Z,49.37
2023-01-21T18:39:25.737Z,49.26
2023-01-21T18:41:53.509Z,49.31
2023-01-21T18:44:21.209Z,49.26
2023-01-21T18:46:49.447Z,49.43
2023-01-21T18:49:20.298Z,49.25
2023-01-21T18:51:48.145Z,49.22
2023-01-21T18:54:18.228Z,49.49
2023-01-21T18:56:46.517Z,49.40
2023-01-21T18:59:17.906Z,49.16
2023-01-21T19:01:45.700Z,49.62
2023-01-21T19:04:18.279Z,49.76
2023-01-21T19:06:55.369Z,49.69
2023-01-21T19:09:25.699Z,49.41
2023-01-21T19:11:53.525Z,49.61
2023-01-21T19:14:21.256Z,49.14
2023-01-21T19:16:49.026Z,49.38
2023-01-21T19:19:20.415Z,49.73
2023-01-21T19:21:48.376Z,49.66
2023-01-21T19:24:16.154Z,49.47
2023-01-21T19:26:44.041Z,49.31
2023-01-21T19:29:21.509Z,49.41
2023-01-21T19:31:49.472Z,49.76
2023-01-21T19:34:17.234Z,49.59
2023-01-21T19:36:46.604Z,49.90
2023-01-21T19:39:19.227Z,49.58
2023-01-21T19:41:48.601Z,49.83
2023-01-21T19:44:19.379Z,49.66
2023-01-21T19:46:47.288Z,49.70
2023-01-21T19:49:17.313Z,49.63
2023-01-21T19:51:45.199Z,49.74
2023-01-21T19:54:12.967Z,49.67
2023-01-21T19:56:40.850Z,49.82
2023-01-21T19:59:14.327Z,49.90
2023-01-21T20:01:42.204Z,49.73
2023-01-21T20:04:10.070Z,50.04
2023-01-21T20:06:44.597Z,49.82
2023-01-21T20:09:17.554Z,49.69
2023-01-21T20:11:45.268Z,49.61
2023-01-21T20:14:13.138Z,49.83
2023-01-21T20:16:49.910Z,50.16
2023-01-21T20:19:19.259Z,50.30
2023-01-21T20:21:59.901Z,50.25
2023-01-21T20:24:30.137Z,50.20
2023-01-21T20:26:59.204Z,50.23
2023-01-21T20:29:27.176Z,50.44
2023-01-21T20:31:55.243Z,50.46
2023-01-21T20:34:23.087Z,50.39
2023-01-21T20:36:51.851Z,50.44
2023-01-21T20:39:19.864Z,50.28
2023-01-21T20:41:47.627Z,50.67
2023-01-21T20:44:15.632Z,50.63
2023-01-21T20:46:45.410Z,50.68
2023-01-21T20:49:13.338Z,50.70
2023-01-21T20:51:41.036Z,50.71
2023-01-21T20:54:08.879Z,50.76
2023-01-21T20:56:38.277Z,50.74
2023-01-21T20:59:06.215Z,50.79
2023-01-21T21:01:34.938Z,50.78
2023-01-21T21:04:02.819Z,50.62
2023-01-21T21:06:30.895Z,50.60
2023-01-21T21:08:58.957Z,50.60
2023-01-21T21:11:26.770Z,50.61
2023-01-21T21:13:54.563Z,50.77
2023-01-21T21:16:28.666Z,50.72
2023-01-21T21:18:56.775Z,50.54
2023-01-21T21:21:24.795Z,50.97
2023-01-21T21:23:53.393Z,50.63
2023-01-21T21:26:29.129Z,50.62
2023-01-21T21:29:00.063Z,50.68
2023-01-21T21:31:32.744Z,50.66
2023-01-21T21:34:00.869Z,50.53
2023-01-21T21:36:31.277Z,50.95
2023-01-21T21:39:00.092Z,51.04
2023-01-21T21:41:46.795Z,50.84
2023-01-21T21:44:14.616Z,50.89
2023-01-21T21:47:03.620Z,50.90
2023-01-21T21:49:32.129Z,50.96
2023-01-21T21:52:00.902Z,51.23
2023-01-21T21:54:29.800Z,51.21
2023-01-21T21:56:57.854Z,50.85
2023-01-21T21:59:25.812Z,51.00
2023-01-21T22:01:53.716Z,51.17
2023-01-21T22:04:22.960Z,51.06
2023-01-21T22:06:50.693Z,51.01
2023-01-21T22:09:18.775Z,50.97
2023-01-21T22:11:46.640Z,51.19
2023-01-21T22:14:14.813Z,51.12
2023-01-21T22:16:42.705Z,51.42
2023-01-21T22:19:11.976Z,51.22
2023-01-21T22:21:39.744Z,51.12
2023-01-21T22:24:08.262Z,50.98
2023-01-21T22:26:36.412Z,51.35
2023-01-21T22:29:05.313Z,51.50
2023-01-21T22:31:34.042Z,51.19
2023-01-21T22:34:01.912Z,51.28
2023-01-21T22:36:30.926Z,51.34
2023-01-21T22:38:59.239Z,51.27
2023-01-21T22:41:27.578Z,51.49
2023-01-21T22:43:57.203Z,51.46
2023-01-21T22:46:33.627Z,51.53
2023-01-21T22:49:01.547Z,51.67
2023-01-21T22:51:29.541Z,51.72
2023-01-21T22:53:57.811Z,51.72
2023-01-21T22:56:44.801Z,52.07
2023-01-21T22:59:14.477Z,51.89
2023-01-21T23:01:42.373Z,51.80
2023-01-21T23:04:11.013Z,51.85
2023-01-21T23:06:38.916Z,51.80
2023-01-21T23:09:09.486Z,51.88
2023-01-21T23:11:39.811Z,51.70
2023-01-21T23:14:09.875Z,52.21
2023-01-21T23:16:38.059Z,52.06
2023-01-21T23:19:05.896Z,52.15
2023-01-21T23:21:33.958Z,52.45
2023-01-21T23:24:01.695Z,52.38
2023-01-21T23:26:29.463Z,52.55
2023-01-21T23:28:57.755Z,52.42
2023-01-21T23:31:26.129Z,52.40
2023-01-21T23:33:56.271Z,52.76
2023-01-21T23:36:24.694Z,52.71
2023-01-21T23:38:55.081Z,52.59
2023-01-21T23:41:22.982Z,52.65
2023-01-21T23:43:50.732Z,52.50
2023-01-21T23:46:19.902Z,52.74
2023-01-21T23:48:48.455Z,52.56
2023-01-21T23:51:18.331Z,52.65
2023-01-21T23:53:49.068Z,52.66
2023-01-21T23:56:22.255Z,52.46
2023-01-21T23:58:53.584Z,52.56
